Biotrans — JWPN — position and weather

sailwx.info

Track history (hours):
 
Tides and Currents Weather Stations Pressure Air Temp Water Temp Dewpoint Dewpoint Depression Visibility Wind Speed Wind Dir Waves Ship Positions

Biotrans

Last reported at 2014-Dec-18 09:22 UTC. Time now 2014-Dec-20 03:03 UTC.
Position N 67°42' E 014°31'.

Length 55 m; draft 5.5 m.

Type: Cargo ship. MMSI: 259260000.

Date/timePositionNaut miles runAvg speedWind from/ knotsBaromVisibWave heightAir tempDewpointWater temp
2014-Dec-18 09:22N 67°42' E 014°31'7 9.1
2014-Dec-18 08:33N 67°35' E 014°30'9 9.2
2014-Dec-18 07:33N 67°26' E 014°27'9 9.1
2014-Dec-18 06:33N 67°18' E 014°16'8 7.9
2014-Dec-18 05:33N 67°10' E 014°19'3 1.9
2014-Dec-18 04:03N 67°07' E 014°18'4 7.2
2014-Dec-18 03:34N 67°11' E 014°19'7 7.1
2014-Dec-18 02:31N 67°08' E 014°01'19 5.9
2014-Dec-17 23:19N 66°54' E 013°28'41 8.1
2014-Dec-17 18:18N 66°30' E 012°05'5 5.9
2014-Dec-17 17:32N 66°25' E 012°06'10 8.8
2014-Dec-17 16:24N 66°17' E 012°19'8 9.4
2014-Dec-17 15:33N 66°13' E 012°37'64 8.6
2014-Dec-17 08:09N 65°12' E 011°56'3 0.6
2014-Dec-17 03:17N 65°11' E 012°03'3 4.6
2014-Dec-17 02:31N 65°09' E 011°56'5 4.9
2014-Dec-17 01:33N 65°06' E 011°48'5 5.2
2014-Dec-17 00:33N 65°02' E 011°42'6 5.9
2014-Dec-16 23:33N 64°58' E 011°32'7 6.6
2014-Dec-16 22:33N 64°54' E 011°20'4 3.9
2014-Dec-16 21:33N 64°51' E 011°13'  
2014-Dec-13 04:28N 63°37' E 009°28'170 4.7
2014-Dec-11 16:16N 66°06' E 012°43'15 8.4
2014-Dec-11 14:28N 66°20' E 012°57'42 8.0
2014-Dec-11 09:13N 66°59' E 013°35'9 8.5
2014-Dec-11 08:09N 67°04' E 013°54'5 8.5
2014-Dec-11 07:33N 67°08' E 014°02'8 8.3
2014-Dec-11 06:33N 67°16' E 014°12'9 8.6
2014-Dec-11 05:33N 67°22' E 014°25'8 8.1
2014-Dec-11 04:33N 67°30' E 014°29'12 8.1
2014-Dec-11 03:06N 67°42' E 014°31'147 4.1
2014-Dec-09 15:13N 69°35' E 018°49'6 9.2
2014-Dec-09 14:33N 69°40' E 018°59'106 6.6
2014-Dec-08 22:27N 70°26' E 023°38'7 7.6
2014-Dec-08 21:33N 70°32' E 023°34'1 1.2
2014-Dec-08 20:33N 70°33' E 023°35'9 8.9
2014-Dec-08 19:33N 70°42' E 023°32'  
Track history (hours):
 
Tides and Currents Weather Stations Pressure Air Temp Water Temp Dewpoint Dewpoint Depression Visibility Wind Speed Wind Dir Waves Ship Positions

Biotrans

Last reported at 2014-Dec-18 09:22 UTC. Time now 2014-Dec-20 03:03 UTC.
Position N 67°42' E 014°31'.

Length 55 m; draft 5.5 m.

Type: Cargo ship. MMSI: 259260000.

Date/timePositionNaut miles runAvg speedWind from/ knotsBaromVisibWave heightAir tempDewpointWater temp
2014-Dec-18 09:22N 67°42' E 014°31'7 9.1
2014-Dec-18 08:33N 67°35' E 014°30'9 9.2
2014-Dec-18 07:33N 67°26' E 014°27'9 9.1
2014-Dec-18 06:33N 67°18' E 014°16'8 7.9
2014-Dec-18 05:33N 67°10' E 014°19'3 1.9
2014-Dec-18 04:03N 67°07' E 014°18'4 7.2
2014-Dec-18 03:34N 67°11' E 014°19'7 7.1
2014-Dec-18 02:31N 67°08' E 014°01'19 5.9
2014-Dec-17 23:19N 66°54' E 013°28'41 8.1
2014-Dec-17 18:18N 66°30' E 012°05'5 5.9
2014-Dec-17 17:32N 66°25' E 012°06'10 8.8
2014-Dec-17 16:24N 66°17' E 012°19'8 9.4
2014-Dec-17 15:33N 66°13' E 012°37'64 8.6
2014-Dec-17 08:09N 65°12' E 011°56'3 0.6
2014-Dec-17 03:17N 65°11' E 012°03'3 4.6
2014-Dec-17 02:31N 65°09' E 011°56'5 4.9
2014-Dec-17 01:33N 65°06' E 011°48'5 5.2
2014-Dec-17 00:33N 65°02' E 011°42'6 5.9
2014-Dec-16 23:33N 64°58' E 011°32'7 6.6
2014-Dec-16 22:33N 64°54' E 011°20'4 3.9
2014-Dec-16 21:33N 64°51' E 011°13'  
2014-Dec-13 04:28N 63°37' E 009°28'170 4.7
2014-Dec-11 16:16N 66°06' E 012°43'15 8.4
2014-Dec-11 14:28N 66°20' E 012°57'42 8.0
2014-Dec-11 09:13N 66°59' E 013°35'9 8.5
2014-Dec-11 08:09N 67°04' E 013°54'5 8.5
2014-Dec-11 07:33N 67°08' E 014°02'8 8.3
2014-Dec-11 06:33N 67°16' E 014°12'9 8.6
2014-Dec-11 05:33N 67°22' E 014°25'8 8.1
2014-Dec-11 04:33N 67°30' E 014°29'12 8.1
2014-Dec-11 03:06N 67°42' E 014°31'147 4.1
2014-Dec-09 15:13N 69°35' E 018°49'6 9.2
2014-Dec-09 14:33N 69°40' E 018°59'106 6.6
2014-Dec-08 22:27N 70°26' E 023°38'7 7.6
2014-Dec-08 21:33N 70°32' E 023°34'1 1.2
2014-Dec-08 20:33N 70°33' E 023°35'9 8.9
2014-Dec-08 19:33N 70°42' E 023°32'  

Dump ship's entire track history